createdAt,value
2017-09-11T00:01:16.274Z,16.08
2017-09-11T00:03:44.641Z,16.08
2017-09-11T00:06:13.436Z,16.19
2017-09-11T00:08:42.783Z,16.31
2017-09-11T00:11:11.198Z,16.37
2017-09-11T00:13:39.552Z,16.24
2017-09-11T00:16:09.385Z,16.21
2017-09-11T00:18:37.741Z,16.29
2017-09-11T00:21:06.876Z,16.20
2017-09-11T00:23:35.486Z,16.41
2017-09-11T00:26:04.617Z,16.29
2017-09-11T00:28:33.741Z,16.32
2017-09-11T00:31:02.446Z,16.21
2017-09-11T00:33:30.797Z,16.21
2017-09-11T00:35:59.146Z,16.20
2017-09-11T00:38:29.619Z,16.40
2017-09-11T00:40:57.953Z,16.37
2017-09-11T00:43:27.081Z,16.43
2017-09-11T00:45:55.871Z,16.40
2017-09-11T00:48:25.885Z,16.37
2017-09-11T00:50:54.214Z,16.42
2017-09-11T00:53:22.857Z,16.39
2017-09-11T00:55:51.197Z,16.50
2017-09-11T00:58:19.539Z,16.41
2017-09-11T01:00:48.602Z,16.43
2017-09-11T01:03:17.025Z,16.54
2017-09-11T01:05:45.438Z,16.54
2017-09-11T01:08:14.994Z,16.59
2017-09-11T01:10:43.691Z,16.54
2017-09-11T01:13:12.571Z,16.48
2017-09-11T01:15:41.281Z,16.53
2017-09-11T01:18:09.626Z,16.66
2017-09-11T01:20:38.567Z,16.53
2017-09-11T01:23:07.631Z,16.77
2017-09-11T01:25:36.898Z,16.70
2017-09-11T01:28:05.525Z,16.70
2017-09-11T01:30:34.988Z,16.69
2017-09-11T01:33:04.900Z,16.71
2017-09-11T01:35:34.004Z,16.55
2017-09-11T01:38:03.611Z,16.71
2017-09-11T01:40:31.959Z,16.65
2017-09-11T01:43:01.168Z,16.63
2017-09-11T01:45:30.077Z,16.62
2017-09-11T01:47:58.419Z,16.65
2017-09-11T01:50:26.761Z,16.58
2017-09-11T01:52:55.368Z,16.70
2017-09-11T01:55:23.707Z,16.81
2017-09-11T01:57:52.042Z,16.69
2017-09-11T02:00:22.086Z,16.48
2017-09-11T02:02:51.764Z,16.66
2017-09-11T02:05:20.093Z,16.58
2017-09-11T02:07:49.874Z,16.46
2017-09-11T02:10:18.981Z,16.58
2017-09-11T02:12:47.329Z,16.65
2017-09-11T02:15:16.147Z,16.74
2017-09-11T02:17:44.529Z,16.55
2017-09-11T02:20:13.890Z,16.51
2017-09-11T02:22:42.638Z,16.54
2017-09-11T02:25:10.981Z,16.49
2017-09-11T02:27:39.968Z,16.40
2017-09-11T02:30:09.924Z,16.69
2017-09-11T02:32:38.252Z,16.64
2017-09-11T02:35:07.387Z,16.61
2017-09-11T02:37:37.815Z,16.68
2017-09-11T02:40:06.196Z,16.54
2017-09-11T02:42:35.302Z,16.63
2017-09-11T02:45:04.121Z,16.69
2017-09-11T02:47:33.343Z,16.66
2017-09-11T02:50:02.539Z,16.76
2017-09-11T02:52:31.846Z,16.55
2017-09-11T02:55:00.554Z,16.54
2017-09-11T02:57:29.704Z,16.71
2017-09-11T02:59:58.466Z,16.71
2017-09-11T03:02:28.002Z,16.68
2017-09-11T03:04:56.331Z,16.59
2017-09-11T03:07:25.782Z,16.61
2017-09-11T03:09:54.134Z,16.56
2017-09-11T03:12:22.689Z,16.62
2017-09-11T03:14:51.805Z,16.60
2017-09-11T03:17:20.236Z,16.64
2017-09-11T03:19:48.577Z,16.50
2017-09-11T03:22:17.189Z,16.41
2017-09-11T03:24:46.474Z,16.55
2017-09-11T03:27:15.537Z,16.51
2017-09-11T03:29:45.828Z,16.62
2017-09-11T03:32:15.680Z,16.64
2017-09-11T03:34:44.790Z,16.66
2017-09-11T03:37:13.658Z,16.56
2017-09-11T03:39:42.005Z,16.57
2017-09-11T03:42:12.093Z,16.68
2017-09-11T03:44:40.779Z,16.61
2017-09-11T03:47:09.142Z,16.50
2017-09-11T03:49:37.630Z,16.57
2017-09-11T03:52:07.098Z,16.63
2017-09-11T03:54:36.369Z,16.56
2017-09-11T03:57:04.698Z,16.48
2017-09-11T03:59:34.335Z,16.65
2017-09-11T04:02:02.890Z,16.63
2017-09-11T04:04:31.794Z,16.56
2017-09-11T04:07:00.462Z,16.67
2017-09-11T04:09:28.781Z,16.71
2017-09-11T04:11:57.163Z,16.70
2017-09-11T04:14:25.795Z,16.70
2017-09-11T04:16:54.128Z,16.51
2017-09-11T04:19:22.487Z,16.57
2017-09-11T04:21:51.535Z,16.65
2017-09-11T04:24:19.882Z,16.62
2017-09-11T04:26:48.634Z,16.84
2017-09-11T04:29:19.413Z,16.75
2017-09-11T04:31:48.185Z,16.77
2017-09-11T04:34:17.760Z,16.87
2017-09-11T04:36:47.505Z,16.75
2017-09-11T04:39:15.835Z,16.80
2017-09-11T04:41:44.182Z,16.77
2017-09-11T04:44:13.015Z,16.86
2017-09-11T04:46:42.317Z,16.75
2017-09-11T04:49:10.666Z,17.01
2017-09-11T04:51:40.213Z,16.93
2017-09-11T04:54:09.453Z,16.81
2017-09-11T04:56:39.899Z,16.97
2017-09-11T04:59:08.907Z,16.83
2017-09-11T05:01:37.280Z,16.77
2017-09-11T05:04:06.524Z,16.79
2017-09-11T05:06:35.298Z,16.94
2017-09-11T05:09:03.633Z,17.01
2017-09-11T05:11:32.072Z,16.99
2017-09-11T05:14:01.525Z,16.69
2017-09-11T05:16:30.006Z,16.79
2017-09-11T05:18:59.380Z,16.86
2017-09-11T05:21:28.254Z,16.73
2017-09-11T05:23:56.665Z,16.62
2017-09-11T05:26:24.994Z,16.40
2017-09-11T05:28:54.093Z,16.39
2017-09-11T05:31:22.636Z,16.50
2017-09-11T05:33:51.857Z,16.59
2017-09-11T05:36:21.344Z,16.48
2017-09-11T21:41:42.274Z,16.43
2017-09-11T21:44:10.609Z,16.51
2017-09-11T21:46:38.951Z,16.61
2017-09-11T21:49:08.749Z,16.82
2017-09-11T21:51:37.166Z,16.57
2017-09-11T21:54:06.032Z,16.52
2017-09-11T21:56:34.889Z,16.59
2017-09-11T21:59:03.228Z,16.46
2017-09-11T22:01:31.580Z,16.41
2017-09-11T22:04:00.677Z,16.42
2017-09-11T22:06:29.349Z,16.39
2017-09-11T22:08:58.209Z,16.48
2017-09-11T22:11:27.735Z,16.34
2017-09-11T22:13:56.967Z,16.44
2017-09-11T22:16:25.330Z,16.40
2017-09-11T22:18:54.231Z,16.49
2017-09-11T22:21:23.409Z,16.57
2017-09-11T22:23:53.068Z,16.51
2017-09-11T22:26:22.726Z,16.50
2017-09-11T22:28:51.060Z,16.54
2017-09-11T22:31:19.409Z,16.71
2017-09-11T22:33:48.102Z,16.43
2017-09-11T22:36:16.464Z,16.51
2017-09-11T22:38:44.806Z,16.43
2017-09-11T22:41:14.516Z,16.51
2017-09-11T22:43:43.643Z,16.50
2017-09-11T22:46:12.213Z,16.46
2017-09-11T22:48:41.503Z,16.40
2017-09-11T22:51:09.890Z,16.43
2017-09-11T22:53:39.082Z,16.12
2017-09-11T22:56:07.753Z,16.39
2017-09-11T22:58:37.093Z,16.41
2017-09-11T23:01:05.465Z,16.20
2017-09-11T23:03:34.083Z,16.13
2017-09-11T23:06:03.758Z,16.21
2017-09-11T23:08:32.090Z,16.15
2017-09-11T23:11:01.121Z,16.23
2017-09-11T23:13:30.151Z,16.32
2017-09-11T23:15:58.478Z,16.31
2017-09-11T23:18:27.159Z,16.27
2017-09-11T23:20:56.724Z,16.40
2017-09-11T23:23:25.069Z,16.17
2017-09-11T23:25:54.678Z,16.25
2017-09-11T23:28:23.009Z,16.17
2017-09-11T23:30:51.364Z,16.44
2017-09-11T23:33:20.419Z,16.31
2017-09-11T23:35:49.852Z,15.94
2017-09-11T23:38:19.106Z,16.07
2017-09-11T23:40:47.806Z,16.18
2017-09-11T23:43:16.925Z,16.15
2017-09-11T23:45:45.298Z,16.23
2017-09-11T23:48:14.847Z,16.12
2017-09-11T23:50:43.933Z,16.09
2017-09-11T23:53:12.560Z,16.05
2017-09-11T23:55:43.814Z,16.12
2017-09-11T23:58:13.763Z,16.13
